メインページ
METAR-TAF:

METAR-TAF

空港 :

Abadeh, イラン

緯度: 31-11N, 経度: 052-40E, 海抜: 2004m

現時点の気象観測

当レポートは21分前の04:00(UTC)に作成
南西の風 18kt、最大40ktの突風を伴う
気温 16°C
湿度 27%
気圧 1014 hPa
視程10km以上
1,500メートル以下は雲なし、積乱雲なし

METAR: OISA 220400Z 22018G40KT CAVOK 16/M03 Q1014 A2994

時間: 08:51 (04:21 UTC)


TAF: 見つかりません

4,000以上の空港の気象観測と天気予報(METAR報とTAF報)

利用可能な観測所は地図上に黄色い丸と赤い丸で示す。

丸の上にカーソルを重ねると観測所名を参照できる。

次にクリックすると気象観測と天気予報を参照できる。

マップの切り替え:黒色「×」印の緑ボタンをクリックして拡大、「-」印の緑ボタンをクリックして縮小、緑色の三角印をクリックして隣りの地図に切り替え


METAR-TAF: